createdAt,value
2019-05-21T00:00:08.892Z,11.38
2019-05-21T00:05:06.405Z,11.26
2019-05-21T00:10:06.926Z,10.99
2019-05-21T00:14:06.364Z,10.98
2019-05-21T00:19:06.429Z,11.16
2019-05-21T00:24:06.565Z,11.44
2019-05-21T00:29:06.784Z,11.4
2019-05-21T00:34:06.746Z,11.39
2019-05-21T00:39:07.371Z,11.38
2019-05-21T00:44:06.531Z,11.34
2019-05-21T00:49:06.971Z,11.07
2019-05-21T00:53:06.306Z,11.12
2019-05-21T00:58:06.456Z,11.18
2019-05-21T01:03:09.124Z,11.08
2019-05-21T01:08:07.127Z,10.99
2019-05-21T01:13:07.868Z,11.2
2019-05-21T01:18:06.656Z,11.19
2019-05-21T01:23:06.913Z,11.13
2019-05-21T01:27:06.367Z,11.04
2019-05-21T01:32:06.489Z,10.99
2019-05-21T01:37:06.667Z,11
2019-05-21T01:42:06.245Z,10.98
2019-05-21T01:47:06.635Z,10.86
2019-05-21T01:52:06.884Z,10.66
2019-05-21T01:57:07.075Z,10.46
2019-05-21T02:01:07.153Z,10.43
2019-05-21T02:06:06.629Z,10.73
2019-05-21T02:11:06.372Z,10.77
2019-05-21T02:16:06.271Z,10.73
2019-05-21T02:21:06.598Z,10.7
2019-05-21T02:26:06.837Z,10.55
2019-05-21T02:31:07.117Z,10.68
2019-05-21T02:36:06.444Z,10.64
2019-05-21T02:40:06.264Z,10.59
2019-05-21T02:45:08.251Z,10.58
2019-05-21T02:50:06.601Z,10.4
2019-05-21T02:55:06.858Z,10.19
2019-05-21T03:00:08.700Z,10.07
2019-05-21T03:05:07.202Z,10.06
2019-05-21T03:10:07.025Z,10.35
2019-05-21T03:15:07.431Z,10.12
2019-05-21T03:19:06.798Z,10.14
2019-05-21T03:24:07.069Z,10.1
2019-05-21T03:29:06.436Z,10.15
2019-05-21T03:34:06.728Z,10.18
2019-05-21T03:39:07.251Z,9.94
2019-05-21T03:44:06.582Z,10.07
2019-05-21T03:49:06.625Z,10.2
2019-05-21T03:54:07.150Z,10.18
2019-05-21T03:58:06.328Z,10.25
2019-05-21T04:03:07.188Z,10.45
2019-05-21T04:08:07.196Z,10.8
2019-05-21T04:13:07.960Z,11.14
2019-05-21T04:18:06.639Z,11.94
2019-05-21T04:23:07.283Z,12.06
2019-05-21T04:28:06.415Z,12.2
2019-05-21T04:33:06.443Z,12.79
2019-05-21T04:38:06.776Z,13.1
2019-05-21T04:42:06.745Z,13.81
2019-05-21T04:47:06.367Z,14.75
2019-05-21T04:52:06.638Z,14.83
2019-05-21T04:57:06.889Z,15.25
2019-05-21T05:02:06.402Z,15.88
2019-05-21T05:07:06.580Z,14.65
2019-05-21T05:12:06.210Z,15.6
2019-05-21T05:16:06.530Z,15.89
2019-05-21T05:21:06.839Z,16.19
2019-05-21T05:26:06.989Z,15.68
2019-05-21T05:31:06.853Z,14.65
2019-05-21T05:36:07.102Z,14.53
2019-05-21T05:41:08.105Z,14.96
2019-05-21T05:45:10.964Z,15.86
2019-05-21T05:46:09.253Z,15.86
2019-05-21T05:50:06.927Z,16.72
2019-05-21T05:55:06.639Z,16.61
2019-05-21T06:00:08.706Z,16.87
2019-05-21T06:05:06.704Z,17
2019-05-21T06:10:06.861Z,17.68
2019-05-21T06:15:07.427Z,19.01
2019-05-21T06:19:06.369Z,19.32
2019-05-21T06:24:06.171Z,18.46
2019-05-21T06:29:06.528Z,19.39
2019-05-21T06:34:06.142Z,20.45
2019-05-21T06:39:07.047Z,20.59
2019-05-21T06:44:05.867Z,20.6
2019-05-21T06:49:07.173Z,20.25
2019-05-21T06:53:06.936Z,19.38
2019-05-21T06:58:06.462Z,18.91
2019-05-21T07:03:06.655Z,18.78
2019-05-21T07:08:07.178Z,19.04
2019-05-21T07:13:06.658Z,19.86
2019-05-21T07:18:06.193Z,20.95
2019-05-21T07:23:06.209Z,21.78
2019-05-21T07:27:05.980Z,21.74
2019-05-21T07:32:06.942Z,21.54
2019-05-21T07:37:06.543Z,21.4
2019-05-21T07:42:06.734Z,21.34
2019-05-21T07:47:06.729Z,21.27
2019-05-21T07:52:06.904Z,22.22
2019-05-21T07:57:06.396Z,21.05
2019-05-21T08:01:06.870Z,21.3
2019-05-21T08:06:06.312Z,21.02
2019-05-21T08:11:06.728Z,21.64
2019-05-21T08:16:06.119Z,21.01
2019-05-21T08:21:07.042Z,22.71
2019-05-21T08:26:06.632Z,23.18
2019-05-21T08:30:07.512Z,22.17
2019-05-21T08:35:06.276Z,23.01
2019-05-21T08:40:06.212Z,23.21
2019-05-21T08:45:07.199Z,22.6
2019-05-21T08:50:06.761Z,21.99
2019-05-21T08:55:06.604Z,22.8
2019-05-21T09:00:08.727Z,21.82
2019-05-21T09:04:06.038Z,21.6
2019-05-21T09:09:07.437Z,21.54
2019-05-21T09:14:05.922Z,21.4
2019-05-21T09:19:06.549Z,21.55
2019-05-21T09:24:06.794Z,23.62
2019-05-21T09:29:06.403Z,24.2
2019-05-21T09:34:06.960Z,22.66
2019-05-21T09:39:06.815Z,22.08
2019-05-21T09:44:06.709Z,22.83
2019-05-21T09:48:07.304Z,23.73
2019-05-21T09:53:06.429Z,23.37
2019-05-21T09:58:06.958Z,23.53
2019-05-21T10:03:06.902Z,22.47
2019-05-21T10:08:06.558Z,23.11
2019-05-21T10:13:06.843Z,23.55
2019-05-21T10:18:06.249Z,24.33
2019-05-21T10:23:07.107Z,25.62
2019-05-21T10:27:07.185Z,24.74
2019-05-21T10:32:06.321Z,24.53
2019-05-21T10:37:06.828Z,23.08
2019-05-21T10:42:06.270Z,22.69
2019-05-21T10:47:06.302Z,22.42
2019-05-21T10:52:06.214Z,23.15
2019-05-21T10:57:06.742Z,22.99
2019-05-21T11:02:06.519Z,23.87
2019-05-21T11:06:10.855Z,24.13
2019-05-21T11:11:06.158Z,22.5
2019-05-21T11:16:06.657Z,21.99
2019-05-21T11:21:06.757Z,23.55
2019-05-21T11:26:06.290Z,23.53
2019-05-21T11:30:08.361Z,23.38
2019-05-21T11:31:06.566Z,23.38
2019-05-21T11:35:06.581Z,23
2019-05-21T11:40:08.445Z,22.12
2019-05-21T11:45:08.585Z,22.25
2019-05-21T11:50:06.933Z,22.76
2019-05-21T11:55:06.170Z,23.37
2019-05-21T12:00:08.437Z,23.88
2019-05-21T12:05:06.765Z,25.02
2019-05-21T12:10:06.083Z,23.76
2019-05-21T12:14:06.552Z,23.79
2019-05-21T12:19:08.809Z,23.96
2019-05-21T12:24:06.754Z,24.28
2019-05-21T12:29:06.442Z,23.7
2019-05-21T12:34:06.079Z,26.23
2019-05-21T12:39:15.139Z,27.66
2019-05-21T12:44:06.106Z,26.63
2019-05-21T12:48:06.546Z,25.07
2019-05-21T12:53:06.800Z,23.52
2019-05-21T12:58:06.719Z,24.14
2019-05-21T13:03:07.334Z,23.89
2019-05-21T13:08:05.955Z,23.64
2019-05-21T13:13:06.861Z,23.64
2019-05-21T13:17:06.156Z,22.96
2019-05-21T13:22:07.400Z,22.68
2019-05-21T13:27:07.157Z,23.06
2019-05-21T13:32:06.823Z,23.13
2019-05-21T13:37:06.731Z,23.23
2019-05-21T13:42:06.537Z,23.95
2019-05-21T13:47:06.089Z,24.93
2019-05-21T13:52:06.709Z,25
2019-05-21T13:56:06.065Z,24.16
2019-05-21T14:01:07.120Z,24.58
2019-05-21T14:06:06.678Z,24.13
2019-05-21T14:11:06.588Z,23.39
2019-05-21T14:16:07.537Z,23.92
2019-05-21T14:21:06.398Z,26.04
2019-05-21T14:26:06.371Z,25.92
2019-05-21T14:31:06.767Z,25.66
2019-05-21T14:36:06.663Z,25.49
2019-05-21T14:40:06.668Z,24.83
2019-05-21T14:45:08.451Z,23.76
2019-05-21T14:50:06.661Z,23.16
2019-05-21T14:55:06.856Z,23.7
2019-05-21T15:00:08.373Z,22.84
2019-05-21T15:05:08.334Z,23.43
2019-05-21T15:09:07.910Z,22.53
2019-05-21T15:14:06.508Z,24.29
2019-05-21T15:19:06.702Z,24.65
2019-05-21T15:24:07.305Z,23.73
2019-05-21T15:29:06.916Z,24.19
2019-05-21T15:34:06.910Z,24.92
2019-05-21T15:39:07.102Z,24.77
2019-05-21T15:44:07.211Z,25.49
2019-05-21T15:48:06.637Z,24.3
2019-05-21T15:53:07.226Z,24.97
2019-05-21T15:58:06.830Z,25.18
2019-05-21T16:03:06.783Z,24.84
2019-05-21T16:08:06.611Z,25.07
2019-05-21T16:13:06.738Z,24.59
2019-05-21T16:18:06.261Z,24.85
2019-05-21T16:22:06.686Z,24.78
2019-05-21T16:27:05.926Z,24.35
2019-05-21T16:32:06.582Z,24.32
2019-05-21T16:37:06.548Z,24.57
2019-05-21T16:42:07.475Z,24.03
2019-05-21T16:47:06.907Z,24.47
2019-05-21T16:52:06.071Z,24.53
2019-05-21T16:56:06.480Z,24.04
2019-05-21T17:01:06.967Z,23.96
2019-05-21T17:06:07.100Z,23.62
2019-05-21T17:11:06.080Z,22.44
2019-05-21T17:16:06.103Z,21.97
2019-05-21T17:21:06.976Z,20.96
2019-05-21T17:25:07.340Z,20.41
2019-05-21T17:30:08.006Z,20.24
2019-05-21T17:35:07.440Z,19.97
2019-05-21T17:40:06.323Z,20.07
2019-05-21T17:45:07.930Z,19.94
2019-05-21T17:50:07.722Z,20.11
2019-05-21T17:55:06.723Z,19.66
2019-05-21T18:00:08.592Z,20
2019-05-21T18:04:06.935Z,19.45
2019-05-21T18:09:06.820Z,19.12
2019-05-21T18:14:06.696Z,18.85
2019-05-21T18:19:08.960Z,19.07
2019-05-21T18:24:07.798Z,18.97
2019-05-21T18:29:06.998Z,18.77
2019-05-21T18:34:06.228Z,18.51
2019-05-21T18:38:06.852Z,18.13
2019-05-21T18:43:07.533Z,17.99
2019-05-21T18:48:07.546Z,17.9
2019-05-21T18:53:07.176Z,17.89
2019-05-21T18:58:06.678Z,17.77
2019-05-21T19:03:06.376Z,17.69
2019-05-21T19:08:06.937Z,17.68
2019-05-21T19:12:06.340Z,17.67
2019-05-21T19:17:07.168Z,17.52
2019-05-21T19:22:07.163Z,17.26
2019-05-21T19:27:06.737Z,17.15
2019-05-21T19:32:06.474Z,16.92
2019-05-21T19:37:06.718Z,16.7
2019-05-21T19:42:07.651Z,16.59
2019-05-21T19:46:06.383Z,16.41
2019-05-21T19:51:06.537Z,16.26
2019-05-21T19:56:07.415Z,16.24
2019-05-21T20:01:07.449Z,16.01
2019-05-21T20:06:06.608Z,15.93
2019-05-21T20:11:07.046Z,15.81
2019-05-21T20:16:06.941Z,15.77
2019-05-21T20:20:06.980Z,15.7
2019-05-21T20:25:07.849Z,15.59
2019-05-21T20:30:13.587Z,15.58
2019-05-21T20:35:07.468Z,15.51
2019-05-21T20:40:06.426Z,15.41
2019-05-21T20:45:08.622Z,15.31
2019-05-21T20:50:06.759Z,15.23
2019-05-21T20:54:07.437Z,15.18
2019-05-21T20:59:06.638Z,15.07
2019-05-21T21:04:07.748Z,15.09
2019-05-21T21:09:06.557Z,15.12
2019-05-21T21:14:19.252Z,15.26
2019-05-21T21:19:06.477Z,15.25
2019-05-21T21:24:07.277Z,15.3
2019-05-21T21:28:07.460Z,15.36
2019-05-21T21:33:07.545Z,15.28
2019-05-21T21:38:06.742Z,15.22
2019-05-21T21:43:08.831Z,15.33
2019-05-21T21:48:06.766Z,15.41
2019-05-21T21:53:06.966Z,15.46
2019-05-21T21:58:07.129Z,15.32
2019-05-21T22:02:06.585Z,15.21
2019-05-21T22:07:06.777Z,15.13
2019-05-21T22:12:07.245Z,15.03
2019-05-21T22:17:07.130Z,15.14
2019-05-21T22:22:06.276Z,15.15
2019-05-21T22:27:06.577Z,15.17
2019-05-21T22:32:06.759Z,15.28
2019-05-21T22:37:07.042Z,15.26
2019-05-21T22:41:07.480Z,15.19
2019-05-21T22:46:06.967Z,15
2019-05-21T22:51:07.808Z,14.98
2019-05-21T22:56:06.376Z,14.99
2019-05-21T23:01:07.069Z,14.99
2019-05-21T23:06:07.187Z,14.94
2019-05-21T23:11:06.791Z,14.88
2019-05-21T23:15:25.444Z,14.79
2019-05-21T23:20:07.517Z,14.59
2019-05-21T23:25:07.128Z,14.48
2019-05-21T23:30:08.795Z,14.37
2019-05-21T23:35:07.181Z,14.26
2019-05-21T23:40:07.499Z,14.21
2019-05-21T23:45:08.219Z,14.08
2019-05-21T23:50:06.885Z,14.03
2019-05-21T23:54:06.621Z,13.97
2019-05-21T23:59:06.848Z,13.95
